Time;durP1;ratioP1;P1;durP2;ratioP2;P2;SDS_P1;SDS_P2;PMS_P1;PMS_P2;Temp;Humidity;BMP_temperature;BMP_pressure;BME280_temperature;BME280_humidity;BME280_pressure;Samples;Min_cycle;Max_cycle;Signal;HPM_P1;HPM_P2
2023/01/06 00:00:14;;;;;;;17.10;4.25;;;10.80;99.90;;;;;;5013308;28;20021;-65
2023/01/06 00:02:40;;;;;;;12.20;4.35;;;10.80;99.90;;;;;;5014313;28;20025;-65
2023/01/06 00:05:06;;;;;;;19.98;3.90;;;10.70;99.90;;;;;;5013027;28;20022;-65
2023/01/06 00:07:31;;;;;;;12.25;4.00;;;10.60;99.90;;;;;;5012924;28;20032;-65
2023/01/06 00:09:57;;;;;;;12.27;4.40;;;10.70;99.90;;;;;;5013246;28;20080;-65
2023/01/06 00:12:25;;;;;;;14.30;4.88;;;10.80;99.90;;;;;;5012934;28;20100;-65
2023/01/06 00:14:51;;;;;;;11.70;4.70;;;10.80;99.90;;;;;;5013795;28;20026;-65
2023/01/06 00:17:17;;;;;;;10.68;4.40;;;10.90;99.90;;;;;;5013097;28;20018;-65
2023/01/06 00:19:43;;;;;;;17.25;4.68;;;10.90;99.90;;;;;;5012843;28;20026;-65
2023/01/06 00:22:08;;;;;;;12.57;4.47;;;10.90;99.90;;;;;;5012816;28;20112;-65
2023/01/06 00:24:34;;;;;;;16.00;4.72;;;10.80;99.90;;;;;;5013035;28;20030;-65
2023/01/06 00:27:00;;;;;;;13.82;4.47;;;10.90;99.90;;;;;;5014296;28;20033;-65
2023/01/06 00:29:26;;;;;;;22.67;5.72;;;10.90;99.90;;;;;;5013769;28;20033;-65
2023/01/06 00:31:52;;;;;;;10.52;4.75;;;10.90;99.90;;;;;;5013259;28;20112;-65
2023/01/06 00:34:17;;;;;;;15.60;4.18;;;11.00;99.90;;;;;;5013216;28;20121;-66
2023/01/06 00:36:43;;;;;;;10.13;4.70;;;11.10;99.90;;;;;;5012615;28;20026;-66
2023/01/06 00:39:12;;;;;;;10.35;3.97;;;11.00;99.90;;;;;;5013750;28;20033;-66
2023/01/06 00:44:22;;;;;;;21.27;4.43;;;11.00;99.90;;;;;;5014052;28;20056;-66
2023/01/06 00:46:47;;;;;;;12.88;4.68;;;11.00;99.90;;;;;;5012821;28;20021;-65
2023/01/06 00:49:13;;;;;;;20.80;4.78;;;11.00;99.90;;;;;;5012469;28;20022;-65
2023/01/06 00:51:39;;;;;;;12.13;4.68;;;11.10;99.90;;;;;;5012307;28;20484;-65
2023/01/06 00:54:09;;;;;;;18.38;5.80;;;11.00;99.90;;;;;;5013465;28;20105;-65
2023/01/06 00:56:41;;;;;;;13.50;6.32;;;11.00;99.90;;;;;;5013131;28;20058;-65
2023/01/06 00:59:07;;;;;;;;;;;11.00;99.90;;;;;;5012290;28;20380;-65
2023/01/06 01:01:34;;;;;;;14.48;4.85;;;11.00;99.90;;;;;;5013515;28;19955;-65
2023/01/06 01:04:00;;;;;;;11.35;4.70;;;11.00;99.90;;;;;;5012185;28;20056;-65
2023/01/06 01:06:25;;;;;;;13.98;5.15;;;11.00;99.90;;;;;;5012917;28;20053;-65
2023/01/06 01:08:57;;;;;;;14.55;5.20;;;11.10;99.90;;;;;;5013701;28;20022;-65
2023/01/06 01:14:13;;;;;;;12.48;4.63;;;11.10;99.90;;;;;;4994287;28;20037;-65
2023/01/06 01:16:39;;;;;;;17.10;5.25;;;11.10;99.90;;;;;;5013580;28;20022;-65
2023/01/06 01:19:05;;;;;;;21.77;6.13;;;11.00;99.90;;;;;;5012090;28;20405;-65
2023/01/06 01:21:31;;;;;;;10.70;4.55;;;11.10;99.90;;;;;;5013149;28;20495;-65
2023/01/06 01:23:57;;;;;;;17.05;4.65;;;11.10;99.90;;;;;;5012388;28;20054;-65
2023/01/06 01:26:22;;;;;;;17.42;5.85;;;11.10;99.90;;;;;;5011980;28;20025;-65
2023/01/06 01:28:48;;;;;;;14.35;5.85;;;11.10;99.90;;;;;;5011954;28;20026;-65
2023/01/06 01:31:14;;;;;;;17.55;6.20;;;11.10;99.90;;;;;;5011920;28;20058;-65
2023/01/06 01:33:41;;;;;;;16.48;5.57;;;11.10;99.90;;;;;;5013177;28;20026;-65
2023/01/06 01:36:09;;;;;;;15.48;6.50;;;11.00;99.90;;;;;;5012955;28;20026;-65
2023/01/06 01:38:35;;;;;;;25.70;7.65;;;11.00;99.90;;;;;;5011924;28;20022;-65
2023/01/06 01:41:01;;;;;;;15.02;6.82;;;10.90;99.90;;;;;;5011846;28;20075;-65
2023/01/06 01:43:48;;;;;;;14.27;5.93;;;10.80;99.90;;;;;;5020861;28;20025;-65
2023/01/06 01:46:20;;;;;;;15.75;6.30;;;10.80;99.90;;;;;;5031489;28;20022;-65
2023/01/06 01:48:47;;;;;;;23.98;8.10;;;10.80;99.90;;;;;;5031820;28;20053;-65
2023/01/06 01:51:16;;;;;;;18.90;5.82;;;10.90;99.90;;;;;;5031533;28;20056;-65
2023/01/06 01:53:47;;;;;;;17.65;6.85;;;10.90;99.90;;;;;;5032490;28;20036;-65
2023/01/06 01:56:17;;;;;;;18.35;7.38;;;10.80;99.90;;;;;;5032631;28;20477;-65
2023/01/06 01:58:58;;;;;;;22.02;8.68;;;10.80;99.90;;;;;;5032310;28;20022;-65
2023/01/06 02:01:24;;;;;;;16.03;7.40;;;10.70;99.90;;;;;;5031302;28;20029;-65
2023/01/06 02:03:50;;;;;;;19.73;8.63;;;10.70;99.90;;;;;;5031877;28;20256;-65
2023/01/06 02:06:20;;;;;;;16.77;7.68;;;10.70;99.90;;;;;;5032530;28;20029;-65
2023/01/06 02:09:01;;;;;;;18.23;8.93;;;10.80;99.90;;;;;;5033131;28;20389;-65
2023/01/06 02:11:30;;;;;;;22.90;8.27;;;10.70;99.90;;;;;;5033815;28;20021;-65
2023/01/06 02:14:21;;;;;;;22.73;8.45;;;10.60;99.90;;;;;;5036134;28;20112;-65
2023/01/06 02:17:08;;;;;;;23.45;9.23;;;10.50;99.90;;;;;;5034284;28;20029;-65
2023/01/06 02:19:51;;;;;;;21.10;8.38;;;10.40;99.90;;;;;;5035458;28;20080;-65
2023/01/06 02:22:48;;;;;;;20.77;7.90;;;10.50;99.90;;;;;;5035019;28;20021;-65
2023/01/06 02:25:44;;;;;;;18.27;7.88;;;10.60;99.90;;;;;;5034998;28;20026;-65
2023/01/06 02:28:29;;;;;;;22.08;8.93;;;10.50;99.90;;;;;;5034620;28;20026;-65
2023/01/06 02:31:22;;;;;;;21.38;8.23;;;10.60;99.90;;;;;;5034657;28;20500;-65
2023/01/06 02:34:18;;;;;;;21.08;8.35;;;10.60;99.90;;;;;;5034651;28;20033;-65
2023/01/06 02:36:49;;;;;;;18.98;7.07;;;10.70;99.90;;;;;;4994662;28;20128;-65
2023/01/06 02:39:21;;;;;;;17.20;7.88;;;10.70;99.90;;;;;;5035520;28;20025;-65
2023/01/06 02:42:28;;;;;;;20.67;7.55;;;10.70;99.90;;;;;;5034407;28;20025;-65
2023/01/06 02:45:07;;;;;;;14.73;6.60;;;10.70;99.90;;;;;;5034512;28;20103;-64
2023/01/06 02:47:47;;;;;;;19.95;7.50;;;10.50;99.90;;;;;;5035278;28;20030;-64
2023/01/06 02:50:22;;;;;;;18.30;7.78;;;10.60;99.90;;;;;;5034343;28;20025;-64
2023/01/06 02:53:05;;;;;;;20.83;7.55;;;10.60;99.90;;;;;;5034247;28;20025;-65
2023/01/06 02:55:45;;;;;;;16.65;8.13;;;10.60;99.90;;;;;;5034914;28;20116;-64
2023/01/06 02:58:28;;;;;;;21.38;7.78;;;10.60;99.90;;;;;;5034997;28;20452;-64
2023/01/06 03:01:14;;;;;;;17.83;7.22;;;10.70;99.90;;;;;;5034909;28;20021;-64
2023/01/06 03:03:44;;;;;;;20.42;7.68;;;10.80;99.90;;;;;;5035115;28;20060;-64
2023/01/06 03:06:14;;;;;;;16.15;7.05;;;10.80;99.90;;;;;;5033976;28;20029;-64
2023/01/06 03:08:41;;;;;;;18.38;7.70;;;10.70;99.90;;;;;;5035077;28;20025;-64
2023/01/06 03:11:06;;;;;;;16.17;6.57;;;10.70;99.90;;;;;;5034657;28;20508;-64
2023/01/06 03:13:58;;;;;;;14.35;6.25;;;10.70;99.90;;;;;;5033819;28;20108;-64
2023/01/06 03:16:24;;;;;;;16.27;7.30;;;10.60;99.90;;;;;;5035510;28;20036;-64
2023/01/06 03:18:51;;;;;;;16.70;6.90;;;10.60;99.90;;;;;;5033900;28;20025;-65
2023/01/06 03:21:28;;;;;;;14.63;6.55;;;10.60;99.90;;;;;;5034162;28;20072;-64
2023/01/06 03:23:54;;;;;;;13.18;6.53;;;10.60;99.90;;;;;;5034617;28;20030;-65
2023/01/06 03:26:19;;;;;;;11.88;5.35;;;10.60;99.90;;;;;;5034521;28;20048;-65
2023/01/06 03:28:45;;;;;;;12.30;5.93;;;10.60;99.90;;;;;;5033682;28;20033;-65
2023/01/06 03:31:26;;;;;;;15.75;6.47;;;10.60;99.90;;;;;;5033947;28;20040;-64
2023/01/06 03:33:58;;;;;;;11.88;5.13;;;10.60;99.90;;;;;;5033520;28;20033;-64
2023/01/06 03:36:53;;;;;;;5.43;3.03;;;10.60;99.90;;;;;;5035030;28;20022;-65
2023/01/06 03:39:32;;;;;;;2.10;0.98;;;10.70;99.90;;;;;;5026444;28;20079;-64
2023/01/06 03:45:20;;;;;;;0.63;0.40;;;11.00;99.90;;;;;;5034854;28;20048;-64
2023/01/06 03:48:00;;;;;;;0.35;0.20;;;11.10;99.90;;;;;;5033874;28;20124;-64
2023/01/06 03:50:34;;;;;;;0.32;0.30;;;11.20;99.90;;;;;;5034250;28;20025;-64
2023/01/06 03:53:29;;;;;;;0.60;0.60;;;11.20;99.90;;;;;;5034383;28;20025;-64
2023/01/06 03:56:18;;;;;;;1.88;0.20;;;11.30;99.90;;;;;;5034096;28;20032;-64
2023/01/06 03:58:47;;;;;;;1.65;0.13;;;11.30;99.90;;;;;;5032995;28;20108;-65
2023/01/06 04:01:14;;;;;;;0.00;0.00;;;11.30;99.90;;;;;;5034198;28;20113;-64
2023/01/06 04:03:43;;;;;;;0.50;0.30;;;11.40;99.90;;;;;;5033174;28;20022;-64
2023/01/06 04:06:09;;;;;;;0.30;0.10;;;11.40;99.90;;;;;;5034098;28;20029;-64
2023/01/06 04:08:34;;;;;;;0.52;0.20;;;11.40;99.90;;;;;;5033095;28;20028;-64
2023/01/06 04:11:00;;;;;;;1.17;0.10;;;11.40;99.90;;;;;;5032895;28;20126;-64
2023/01/06 04:13:25;;;;;;;3.33;0.13;;;11.30;99.90;;;;;;5032970;28;20036;-64
2023/01/06 04:16:29;;;;;;;0.30;0.30;;;11.30;99.90;;;;;;5032858;28;20087;-64
2023/01/06 04:18:55;;;;;;;1.85;0.22;;;11.20;99.90;;;;;;5033499;28;20017;-64
2023/01/06 04:21:20;;;;;;;0.20;0.20;;;11.20;99.90;;;;;;5032857;28;20014;-64
2023/01/06 04:23:46;;;;;;;0.10;0.10;;;11.30;99.90;;;;;;5032554;28;20025;-64
2023/01/06 04:26:11;;;;;;;0.10;0.10;;;11.20;99.90;;;;;;5033951;28;20029;-64
2023/01/06 04:28:37;;;;;;;0.15;0.15;;;11.20;99.90;;;;;;5032433;28;20116;-64
2023/01/06 04:31:03;;;;;;;0.10;0.10;;;11.20;99.90;;;;;;5033018;28;20029;-64
2023/01/06 04:33:28;;;;;;;0.10;0.10;;;11.20;99.90;;;;;;5033050;28;20115;-64
2023/01/06 04:35:54;;;;;;;0.10;0.10;;;11.30;99.90;;;;;;5032375;28;20032;-64
2023/01/06 04:38:20;;;;;;;0.17;0.10;;;11.30;99.90;;;;;;5032692;28;20022;-64
2023/01/06 04:40:45;;;;;;;0.10;0.10;;;11.20;99.90;;;;;;5032232;28;20021;-64
2023/01/06 04:43:15;;;;;;;0.10;0.00;;;11.20;99.90;;;;;;5032389;28;20034;-64
2023/01/06 04:45:42;;;;;;;0.10;0.10;;;11.20;99.90;;;;;;5032537;28;20032;-64
2023/01/06 04:48:10;;;;;;;0.38;0.20;;;11.20;99.90;;;;;;5032167;28;20075;-64
2023/01/06 04:50:36;;;;;;;0.25;0.10;;;11.20;99.90;;;;;;5033504;28;20026;-64
2023/01/06 04:53:02;;;;;;;0.20;0.05;;;11.20;99.90;;;;;;5032289;28;20052;-64
2023/01/06 04:55:28;;;;;;;0.85;0.20;;;11.20;99.90;;;;;;5033194;28;20033;-64
2023/01/06 04:57:53;;;;;;;0.22;0.10;;;11.20;99.90;;;;;;5033063;28;20021;-64
2023/01/06 05:00:19;;;;;;;1.27;0.10;;;11.20;99.90;;;;;;5032321;28;20053;-64
2023/01/06 05:02:45;;;;;;;0.20;0.10;;;11.10;99.90;;;;;;5031895;28;20017;-64
2023/01/06 05:05:11;;;;;;;0.88;0.10;;;11.20;99.90;;;;;;5031927;28;20037;-64
2023/01/06 05:07:37;;;;;;;0.32;0.00;;;11.20;99.90;;;;;;5033128;28;20040;-64
2023/01/06 05:10:04;;;;;;;0.70;0.20;;;11.10;99.90;;;;;;5032140;28;20028;-64
2023/01/06 05:12:31;;;;;;;0.40;0.20;;;11.10;99.90;;;;;;5031849;28;20029;-64
2023/01/06 05:14:56;;;;;;;0.20;0.10;;;11.10;99.90;;;;;;5032984;28;20021;-64
2023/01/06 05:17:22;;;;;;;0.03;0.03;;;11.10;99.90;;;;;;5032949;28;20037;-64
2023/01/06 05:19:47;;;;;;;0.35;0.10;;;11.10;99.90;;;;;;5031639;28;20025;-64
2023/01/06 05:22:13;;;;;;;1.20;0.20;;;11.10;99.90;;;;;;5031621;28;20022;-64
2023/01/06 05:24:38;;;;;;;0.08;0.05;;;11.10;99.90;;;;;;5032033;28;20018;-64
2023/01/06 05:27:04;;;;;;;0.17;0.10;;;11.10;99.90;;;;;;5031688;28;20037;-64
2023/01/06 05:29:30;;;;;;;0.10;0.10;;;11.10;99.90;;;;;;5032674;28;20029;-64
2023/01/06 05:31:55;;;;;;;1.85;0.20;;;11.10;99.90;;;;;;5033277;28;20051;-66
2023/01/06 05:34:21;;;;;;;0.55;0.17;;;11.00;99.90;;;;;;5031716;28;20029;-66
2023/01/06 05:36:46;;;;;;;0.82;0.22;;;11.00;99.90;;;;;;5031662;28;20107;-66
2023/01/06 05:39:12;;;;;;;0.10;0.10;;;11.00;99.90;;;;;;5032814;28;20104;-66
2023/01/06 05:41:37;;;;;;;0.20;0.20;;;11.00;99.90;;;;;;5032658;28;20022;-66
2023/01/06 05:44:03;;;;;;;0.20;0.15;;;11.00;99.90;;;;;;5031632;28;20109;-66
2023/01/06 05:46:29;;;;;;;1.88;0.20;;;11.00;99.90;;;;;;5035920;28;20420;-66
2023/01/06 05:48:54;;;;;;;0.43;0.20;;;11.10;99.90;;;;;;5037009;28;20022;-66
2023/01/06 05:51:20;;;;;;;0.88;0.20;;;11.00;99.90;;;;;;5036198;28;20021;-66
2023/01/06 05:53:47;;;;;;;0.10;0.10;;;11.00;99.90;;;;;;5036777;28;20460;-66
2023/01/06 05:56:15;;;;;;;0.60;0.35;;;10.90;99.90;;;;;;5035334;28;20065;-66
2023/01/06 05:58:48;;;;;;;0.20;0.20;;;11.00;99.90;;;;;;5036460;28;20028;-66
2023/01/06 06:01:24;;;;;;;2.08;0.32;;;10.90;99.90;;;;;;5036643;28;20056;-65
2023/01/06 06:03:51;;;;;;;2.35;0.40;;;10.90;99.90;;;;;;5035180;28;20097;-64
2023/01/06 06:06:18;;;;;;;1.20;0.38;;;10.90;99.90;;;;;;5036628;28;20096;-64
2023/01/06 06:08:44;;;;;;;0.38;0.38;;;10.90;99.90;;;;;;5035579;28;20033;-64
2023/01/06 06:11:12;;;;;;;0.38;0.22;;;10.90;99.90;;;;;;5036279;28;20029;-64
2023/01/06 06:13:43;;;;;;;2.65;0.35;;;10.80;99.90;;;;;;5035200;28;20133;-64
2023/01/06 06:16:10;;;;;;;1.73;0.30;;;10.90;99.90;;;;;;5036243;28;20026;-64
2023/01/06 06:18:43;;;;;;;0.57;0.28;;;10.80;99.90;;;;;;5036120;28;20107;-64
2023/01/06 06:21:14;;;;;;;2.28;0.30;;;10.80;99.90;;;;;;5034871;28;20116;-64
2023/01/06 06:23:40;;;;;;;0.93;0.38;;;10.90;99.90;;;;;;5036184;28;20022;-64
2023/01/06 06:26:06;;;;;;;2.35;0.40;;;10.90;99.90;;;;;;5035082;28;20037;-64
2023/01/06 06:28:33;;;;;;;0.20;0.20;;;10.90;99.90;;;;;;5035912;28;20075;-64
2023/01/06 06:31:10;;;;;;;0.93;0.38;;;10.90;99.90;;;;;;5035994;28;20036;-64
2023/01/06 06:33:35;;;;;;;0.30;0.30;;;11.00;99.90;;;;;;5035002;28;20052;-64
2023/01/06 06:36:02;;;;;;;1.52;0.47;;;11.00;99.90;;;;;;5034553;28;20021;-65
2023/01/06 06:38:28;;;;;;;1.65;0.30;;;11.00;99.90;;;;;;5035324;28;20021;-64
2023/01/06 06:40:53;;;;;;;4.65;0.43;;;11.10;99.90;;;;;;5034579;28;20037;-64
2023/01/06 06:43:19;;;;;;;2.38;0.50;;;11.00;99.90;;;;;;5035650;28;20014;-64
2023/01/06 06:45:46;;;;;;;0.80;0.30;;;11.00;99.90;;;;;;5034655;28;20024;-64
2023/01/06 06:48:12;;;;;;;1.00;0.38;;;11.00;99.90;;;;;;5035551;28;20363;-64
2023/01/06 06:50:38;;;;;;;1.92;0.43;;;11.00;99.90;;;;;;5035583;28;20032;-64
2023/01/06 06:53:04;;;;;;;5.95;0.52;;;11.10;99.90;;;;;;5035499;28;20026;-64
2023/01/06 06:55:29;;;;;;;0.73;0.30;;;11.00;99.90;;;;;;5035735;28;20035;-64
2023/01/06 06:57:55;;;;;;;0.63;0.30;;;11.00;99.90;;;;;;5033473;28;20022;-64
2023/01/06 07:00:20;;;;;;;1.67;0.30;;;11.00;99.90;;;;;;5034268;28;20025;-64
2023/01/06 07:02:49;;;;;;;3.47;0.70;;;11.10;99.90;;;;;;5035468;28;20096;-65
2023/01/06 07:05:16;;;;;;;1.88;0.47;;;11.00;99.90;;;;;;5034971;28;20037;-65
2023/01/06 07:07:42;;;;;;;0.75;0.20;;;11.00;99.90;;;;;;5034209;28;20025;-65
2023/01/06 07:10:11;;;;;;;0.52;0.40;;;11.00;99.90;;;;;;5035925;28;20032;-65
2023/01/06 07:12:37;;;;;;;2.25;0.35;;;11.10;99.90;;;;;;5035398;28;20063;-65
2023/01/06 07:15:02;;;;;;;2.72;0.47;;;11.00;99.90;;;;;;5034387;28;20125;-65
2023/01/06 07:17:28;;;;;;;1.15;0.63;;;11.10;99.90;;;;;;5033987;28;20017;-65
2023/01/06 07:19:53;;;;;;;2.53;0.38;;;11.10;99.90;;;;;;5034356;28;20076;-65
2023/01/06 07:22:19;;;;;;;1.08;0.50;;;11.10;99.90;;;;;;5033641;28;20056;-65
2023/01/06 07:24:45;;;;;;;1.92;0.50;;;11.10;99.90;;;;;;5034679;28;20018;-65
2023/01/06 07:27:10;;;;;;;1.95;0.50;;;11.10;99.90;;;;;;5035013;28;20034;-65
2023/01/06 07:29:36;;;;;;;0.65;0.57;;;11.10;99.90;;;;;;5034739;28;20107;-65
2023/01/06 07:32:01;;;;;;;1.83;0.82;;;11.20;99.90;;;;;;5035249;28;20033;-66
2023/01/06 07:34:27;;;;;;;2.08;0.77;;;11.20;99.90;;;;;;5034730;28;20121;-65
2023/01/06 07:36:53;;;;;;;2.30;0.50;;;11.30;99.90;;;;;;5034826;28;20064;-65
2023/01/06 07:39:18;;;;;;;0.60;0.43;;;11.30;99.90;;;;;;5034066;28;20024;-65
2023/01/06 07:41:44;;;;;;;1.13;0.30;;;11.40;99.90;;;;;;5035522;28;20056;-65
2023/01/06 07:44:09;;;;;;;1.85;0.40;;;11.30;99.90;;;;;;5033360;28;20059;-65
2023/01/06 07:46:34;;;;;;;2.58;0.50;;;11.20;99.90;;;;;;5033318;28;20032;-65
2023/01/06 07:49:00;;;;;;;2.05;0.47;;;11.30;99.90;;;;;;5034804;28;20022;-65
2023/01/06 07:51:26;;;;;;;1.10;0.50;;;11.20;99.90;;;;;;5033389;28;20401;-66
2023/01/06 07:53:51;;;;;;;1.73;0.50;;;11.20;99.90;;;;;;5034479;28;20021;-66
2023/01/06 07:56:17;;;;;;;0.88;0.30;;;11.30;99.90;;;;;;5033359;28;20069;-66
2023/01/06 07:58:42;;;;;;;1.63;0.20;;;11.30;99.90;;;;;;5033795;28;20108;-66
2023/01/06 08:01:08;;;;;;;0.40;0.38;;;11.40;99.90;;;;;;5033546;28;20040;-66
2023/01/06 08:03:34;;;;;;;3.42;0.47;;;11.30;99.90;;;;;;5033210;28;20018;-66
2023/01/06 08:06:04;;;;;;;3.10;0.35;;;11.30;99.90;;;;;;5033078;28;20022;-66
2023/01/06 08:08:29;;;;;;;3.17;0.38;;;11.30;99.90;;;;;;5032967;28;20106;-66
2023/01/06 08:10:57;;;;;;;2.38;0.40;;;11.30;99.90;;;;;;5034656;28;20068;-66
2023/01/06 08:13:22;;;;;;;1.05;0.50;;;11.40;99.90;;;;;;5034028;28;20040;-66
2023/01/06 08:15:50;;;;;;;1.88;0.68;;;11.40;99.90;;;;;;5033315;28;20047;-66
2023/01/06 08:18:16;;;;;;;0.70;0.50;;;11.30;99.90;;;;;;5034232;28;20100;-66
2023/01/06 08:20:41;;;;;;;1.95;0.55;;;11.40;99.90;;;;;;5034434;28;20056;-65
2023/01/06 08:23:07;;;;;;;1.35;0.60;;;11.30;99.90;;;;;;5032895;28;20093;-65
2023/01/06 08:25:32;;;;;;;0.50;0.50;;;11.40;99.90;;;;;;5034086;28;20045;-65
2023/01/06 08:27:59;;;;;;;1.63;0.70;;;11.30;99.90;;;;;;5033982;28;20017;-65
2023/01/06 08:30:24;;;;;;;0.80;0.30;;;11.30;99.90;;;;;;5034269;28;20052;-65
2023/01/06 08:32:50;;;;;;;0.80;0.50;;;11.30;99.90;;;;;;5033880;28;20484;-65
2023/01/06 08:35:16;;;;;;;4.97;0.75;;;11.40;99.90;;;;;;5033132;28;20032;-65
2023/01/06 08:37:41;;;;;;;3.13;0.50;;;11.30;99.90;;;;;;5032645;28;20018;-65
2023/01/06 08:40:07;;;;;;;1.17;0.47;;;11.30;99.90;;;;;;5032901;28;20022;-65
2023/01/06 08:42:33;;;;;;;0.52;0.30;;;11.30;99.90;;;;;;5032355;28;20017;-65
2023/01/06 08:44:58;;;;;;;0.40;0.40;;;11.20;99.90;;;;;;5033905;28;20065;-65
2023/01/06 08:47:24;;;;;;;0.52;0.20;;;11.30;99.90;;;;;;5032623;28;20118;-65
2023/01/06 08:49:49;;;;;;;1.08;0.30;;;11.30;99.90;;;;;;5032937;28;20025;-65
2023/01/06 08:52:15;;;;;;;1.48;0.47;;;11.30;99.90;;;;;;5033121;28;20025;-65
2023/01/06 08:54:40;;;;;;;3.03;0.68;;;11.30;99.90;;;;;;5033522;28;20029;-65
2023/01/06 08:57:07;;;;;;;4.82;0.50;;;11.30;99.90;;;;;;5034138;28;20048;-65
2023/01/06 08:59:33;;;;;;;0.70;0.40;;;11.10;99.90;;;;;;5032207;28;20032;-65
2023/01/06 09:01:59;;;;;;;1.40;0.50;;;11.10;99.90;;;;;;5032520;28;20017;-65
2023/01/06 09:04:24;;;;;;;0.55;0.30;;;11.10;99.90;;;;;;5033696;28;20120;-65
2023/01/06 09:06:50;;;;;;;1.02;0.25;;;11.10;99.90;;;;;;5032350;28;20089;-65
2023/01/06 09:09:16;;;;;;;1.45;0.45;;;11.20;99.90;;;;;;5033766;28;20021;-65
2023/01/06 09:11:42;;;;;;;0.98;0.20;;;11.20;99.90;;;;;;5032107;28;20476;-65
2023/01/06 09:14:10;;;;;;;0.60;0.25;;;11.20;99.90;;;;;;5033606;28;20026;-65
2023/01/06 09:16:35;;;;;;;0.30;0.22;;;11.20;99.90;;;;;;5032054;28;20038;-65
2023/01/06 09:19:01;;;;;;;3.08;1.30;;;11.30;99.90;;;;;;5032171;28;20067;-65
2023/01/06 09:21:26;;;;;;;1.92;0.70;;;11.30;99.90;;;;;;5031327;28;20026;-65
2023/01/06 09:23:52;;;;;;;0.80;0.47;;;11.20;99.90;;;;;;5032135;28;20480;-65
2023/01/06 09:26:20;;;;;;;1.08;0.50;;;11.20;99.90;;;;;;5031792;28;20026;-65
2023/01/06 09:28:46;;;;;;;0.35;0.30;;;11.20;99.90;;;;;;5033107;28;20080;-65
2023/01/06 09:31:11;;;;;;;7.55;0.75;;;11.30;99.90;;;;;;5031824;28;20026;-65
2023/01/06 09:33:37;;;;;;;0.52;0.30;;;11.30;99.90;;;;;;5031627;28;20072;-65
2023/01/06 09:36:03;;;;;;;1.08;0.55;;;11.20;99.90;;;;;;5032948;28;20032;-65
2023/01/06 09:38:29;;;;;;;0.30;0.30;;;11.30;99.90;;;;;;5031720;28;20108;-65
2023/01/06 09:41:13;;;;;;;0.40;0.30;;;11.30;99.90;;;;;;5031658;28;20027;-67
2023/01/06 09:43:54;;;;;;;1.95;0.47;;;11.30;99.90;;;;;;5033043;28;20101;-65
2023/01/06 09:46:25;;;;;;;0.75;0.38;;;11.30;99.90;;;;;;5032508;28;20033;-65
2023/01/06 09:49:06;;;;;;;2.25;0.43;;;11.40;99.90;;;;;;5033058;28;20040;-65
2023/01/06 09:51:32;;;;;;;2.15;0.70;;;11.40;99.90;;;;;;5031624;28;20072;-65
2023/01/06 09:54:12;;;;;;;3.08;0.40;;;11.40;99.90;;;;;;5032841;28;20105;-65
2023/01/06 09:56:41;;;;;;;6.65;2.80;;;11.40;99.90;;;;;;5032591;28;20025;-65
2023/01/06 09:59:37;;;;;;;1.05;0.50;;;11.50;99.90;;;;;;5032579;28;20079;-65
2023/01/06 10:02:08;;;;;;;0.47;0.45;;;11.50;99.90;;;;;;5028269;28;20080;-65
2023/01/06 10:04:33;;;;;;;1.33;0.57;;;11.40;99.90;;;;;;5032470;28;20026;-65
2023/01/06 10:07:22;;;;;;;1.05;0.40;;;11.50;99.90;;;;;;5031461;28;20032;-65
2023/01/06 10:10:06;;;;;;;1.23;0.38;;;11.50;99.90;;;;;;5031523;28;20025;-65
2023/01/06 10:12:40;;;;;;;1.75;0.50;;;11.50;99.90;;;;;;5032956;28;20091;-65
2023/01/06 10:15:18;;;;;;;1.65;0.20;;;11.60;99.90;;;;;;5032695;28;20036;-65
2023/01/06 10:18:01;;;;;;;2.28;0.30;;;11.60;99.90;;;;;;5032906;28;20026;-65
2023/01/06 10:20:37;;;;;;;0.90;0.20;;;11.60;99.90;;;;;;5032832;28;20026;-65
2023/01/06 10:23:43;;;;;;;1.67;0.25;;;11.60;99.90;;;;;;5031206;28;20022;-65
2023/01/06 10:26:30;;;;;;;0.80;0.30;;;11.60;99.90;;;;;;5021719;28;20033;-65
2023/01/06 10:29:01;;;;;;;0.40;0.35;;;11.60;99.90;;;;;;5032859;28;20025;-65
2023/01/06 10:31:33;;;;;;;0.40;0.28;;;11.60;99.90;;;;;;5032155;28;20109;-65
2023/01/06 10:34:00;;;;;;;0.50;0.30;;;11.60;99.90;;;;;;5036521;28;20021;-65
2023/01/06 10:36:31;;;;;;;1.25;0.30;;;11.60;99.90;;;;;;5036027;28;20024;-65
2023/01/06 10:38:59;;;;;;;3.83;0.40;;;11.70;99.90;;;;;;5036170;28;20049;-65
2023/01/06 10:41:40;;;;;;;1.17;0.30;;;11.60;99.90;;;;;;5035858;28;20032;-65
2023/01/06 10:44:09;;;;;;;0.40;0.30;;;11.50;99.90;;;;;;5035738;28;20079;-65
2023/01/06 10:46:36;;;;;;;0.52;0.20;;;11.60;99.90;;;;;;5035325;28;20030;-65
2023/01/06 10:49:03;;;;;;;4.72;0.30;;;11.50;99.90;;;;;;5034842;28;20032;-65
2023/01/06 10:51:38;;;;;;;0.32;0.20;;;11.50;99.90;;;;;;5035848;28;20037;-65
2023/01/06 10:54:17;;;;;;;1.30;0.20;;;11.50;99.90;;;;;;5035467;28;20029;-65
2023/01/06 10:56:47;;;;;;;1.83;0.40;;;11.60;99.90;;;;;;5036274;28;20030;-65
2023/01/06 10:59:13;;;;;;;0.20;0.20;;;11.60;99.90;;;;;;5034348;28;20037;-65
2023/01/06 11:02:19;;;;;;;1.30;0.30;;;11.60;99.90;;;;;;5035573;28;20022;-65
2023/01/06 11:04:50;;;;;;;0.28;0.20;;;11.50;99.90;;;;;;4974741;28;20135;-65
2023/01/06 11:07:16;;;;;;;0.50;0.20;;;11.50;99.90;;;;;;4958435;28;20031;-65
2023/01/06 11:09:43;;;;;;;0.20;0.20;;;11.60;99.90;;;;;;4974674;28;20027;-65
2023/01/06 11:12:16;;;;;;;2.85;0.40;;;11.70;99.90;;;;;;4958362;28;20023;-65
2023/01/06 11:14:48;;;;;;;0.82;0.38;;;11.70;99.90;;;;;;4974567;28;20442;-65
2023/01/06 11:17:15;;;;;;;0.30;0.20;;;11.80;99.90;;;;;;4958543;28;20027;-65
2023/01/06 11:23:21;;;;;;;1.52;0.63;;;11.80;99.90;;;;;;4974731;28;20026;-65
2023/01/06 11:25:59;;;;;;;2.00;0.68;;;11.80;99.90;;;;;;4957996;28;20031;-65
2023/01/06 11:28:25;;;;;;;2.58;0.50;;;11.80;99.90;;;;;;4974714;28;20487;-65
2023/01/06 11:30:57;;;;;;;2.20;0.47;;;11.80;99.90;;;;;;4957754;28;20034;-65
2023/01/06 11:33:28;;;;;;;2.50;0.55;;;11.90;99.90;;;;;;4974359;28;20034;-64
2023/01/06 11:35:54;;;;;;;3.03;0.57;;;11.80;99.90;;;;;;4958184;28;20022;-64
2023/01/06 11:38:21;;;;;;;0.50;0.40;;;11.80;99.90;;;;;;4973832;28;20026;-64
2023/01/06 11:40:49;;;;;;;2.22;0.30;;;11.80;99.90;;;;;;5000266;28;20057;-64
2023/01/06 11:43:18;;;;;;;2.00;0.30;;;11.70;99.90;;;;;;5032703;28;20017;-64
2023/01/06 11:45:48;;;;;;;1.05;0.50;;;11.80;99.90;;;;;;5033334;28;20515;-64
2023/01/06 11:48:39;;;;;;;0.43;0.20;;;11.80;99.90;;;;;;5033266;28;20029;-64
2023/01/06 11:51:07;;;;;;;0.68;0.28;;;11.80;99.90;;;;;;5032525;28;20508;-64
2023/01/06 11:53:33;;;;;;;0.17;0.15;;;11.80;99.90;;;;;;5033103;28;20034;-64
2023/01/06 11:56:05;;;;;;;2.28;0.30;;;11.80;99.90;;;;;;5034040;28;20029;-64
2023/01/06 11:58:45;;;;;;;1.75;0.30;;;11.80;99.90;;;;;;5033050;28;20075;-64
2023/01/06 12:01:34;;;;;;;0.40;0.40;;;11.80;99.90;;;;;;5033482;28;20041;-64
2023/01/06 12:04:37;;;;;;;1.00;0.30;;;11.90;99.90;;;;;;5034149;28;20092;-64
2023/01/06 12:07:28;;;;;;;0.82;0.40;;;11.80;99.90;;;;;;5034206;28;20500;-64
2023/01/06 12:09:55;;;;;;;0.82;0.10;;;11.90;99.90;;;;;;5032941;28;20029;-64
2023/01/06 12:12:26;;;;;;;0.65;0.40;;;11.80;99.90;;;;;;5034048;28;20488;-64
2023/01/06 12:14:53;;;;;;;0.57;0.30;;;11.90;99.90;;;;;;5032685;28;20052;-64
2023/01/06 12:17:42;;;;;;;0.40;0.28;;;11.90;99.90;;;;;;5032716;28;20022;-64
2023/01/06 12:20:14;;;;;;;2.08;0.28;;;11.90;99.90;;;;;;5034164;28;20021;-64
2023/01/06 12:22:57;;;;;;;0.73;0.20;;;11.90;99.90;;;;;;5033899;28;20022;-64
2023/01/06 12:25:28;;;;;;;0.40;0.17;;;12.00;99.90;;;;;;5033419;28;20420;-64
2023/01/06 12:28:05;;;;;;;0.40;0.10;;;11.90;99.90;;;;;;5032571;28;20021;-64
2023/01/06 12:30:56;;;;;;;0.13;0.13;;;11.90;99.90;;;;;;5033287;28;20037;-64
2023/01/06 12:33:33;;;;;;;0.33;0.20;;;11.90;99.90;;;;;;5032361;28;20041;-64
2023/01/06 12:36:04;;;;;;;0.77;0.20;;;11.90;99.90;;;;;;5033269;28;20026;-64
2023/01/06 12:38:46;;;;;;;1.00;0.20;;;12.00;99.90;;;;;;5033649;28;20108;-64
2023/01/06 12:41:41;;;;;;;0.68;0.38;;;12.00;99.90;;;;;;5033647;28;20018;-64
2023/01/06 12:44:28;;;;;;;0.70;0.28;;;12.00;99.90;;;;;;5033513;28;20113;-64
2023/01/06 12:47:05;;;;;;;1.15;0.20;;;12.00;99.90;;;;;;5032293;28;20022;-64
2023/01/06 12:49:54;;;;;;;0.17;0.17;;;12.00;99.90;;;;;;5033526;28;20123;-64
2023/01/06 12:52:39;;;;;;;0.45;0.15;;;12.00;99.90;;;;;;5033513;28;20104;-64
2023/01/06 12:55:05;;;;;;;0.50;0.10;;;12.00;99.90;;;;;;5031905;28;20064;-64
2023/01/06 12:57:55;;;;;;;0.45;0.20;;;12.00;99.90;;;;;;5032023;28;20028;-64
2023/01/06 13:00:39;;;;;;;0.10;0.10;;;11.90;99.90;;;;;;5032136;28;20026;-64
2023/01/06 13:03:07;;;;;;;0.47;0.40;;;11.80;99.90;;;;;;5032863;28;20026;-64
2023/01/06 13:05:51;;;;;;;3.03;0.17;;;11.80;99.90;;;;;;5033150;28;20057;-64
2023/01/06 13:08:41;;;;;;;0.30;0.20;;;11.80;99.90;;;;;;5033464;28;20029;-64
2023/01/06 13:11:31;;;;;;;0.75;0.30;;;11.80;99.90;;;;;;5033094;28;20057;-64
2023/01/06 13:14:15;;;;;;;1.80;0.60;;;11.80;99.90;;;;;;5032139;28;20036;-64
2023/01/06 13:16:52;;;;;;;1.95;0.60;;;11.90;99.90;;;;;;5032627;28;20025;-64